sensor_id;sensor_type;location;lat;lon;timestamp;P1;durP1;ratioP1;P2;durP2;ratioP2
70545;SDS011;58098;51.680;5.134;2023-10-19T00:01:55;25.42;;;16.95;;
70545;SDS011;58098;51.680;5.134;2023-10-19T00:04:21;29.52;;;18.02;;
70545;SDS011;58098;51.680;5.134;2023-10-19T00:06:47;25.83;;;17.97;;
70545;SDS011;58098;51.680;5.134;2023-10-19T00:09:14;28.15;;;18.52;;
70545;SDS011;58098;51.680;5.134;2023-10-19T00:11:40;30.10;;;17.60;;
70545;SDS011;58098;51.680;5.134;2023-10-19T00:14:06;27.92;;;17.40;;
70545;SDS011;58098;51.680;5.134;2023-10-19T00:16:40;29.57;;;18.13;;
70545;SDS011;58098;51.680;5.134;2023-10-19T00:19:15;28.65;;;16.70;;
70545;SDS011;58098;51.680;5.134;2023-10-19T00:21:44;26.95;;;16.45;;
70545;SDS011;58098;51.680;5.134;2023-10-19T00:24:17;26.88;;;16.88;;
70545;SDS011;58098;51.680;5.134;2023-10-19T00:26:45;27.40;;;16.70;;
70545;SDS011;58098;51.680;5.134;2023-10-19T00:29:10;26.50;;;16.20;;
70545;SDS011;58098;51.680;5.134;2023-10-19T00:31:54;28.13;;;16.85;;
70545;SDS011;58098;51.680;5.134;2023-10-19T00:34:21;27.73;;;17.00;;
70545;SDS011;58098;51.680;5.134;2023-10-19T00:36:47;28.20;;;17.03;;
70545;SDS011;58098;51.680;5.134;2023-10-19T00:39:13;28.42;;;16.70;;
70545;SDS011;58098;51.680;5.134;2023-10-19T00:41:46;27.73;;;16.63;;
70545;SDS011;58098;51.680;5.134;2023-10-19T00:44:12;26.00;;;16.05;;
70545;SDS011;58098;51.680;5.134;2023-10-19T00:46:47;28.73;;;16.90;;
70545;SDS011;58098;51.680;5.134;2023-10-19T00:49:17;28.40;;;16.27;;
70545;SDS011;58098;51.680;5.134;2023-10-19T00:51:49;28.77;;;16.70;;
70545;SDS011;58098;51.680;5.134;2023-10-19T00:54:35;24.55;;;16.85;;
70545;SDS011;58098;51.680;5.134;2023-10-19T00:57:16;28.10;;;16.90;;
70545;SDS011;58098;51.680;5.134;2023-10-19T00:59:46;29.00;;;16.90;;
70545;SDS011;58098;51.680;5.134;2023-10-19T01:02:17;25.50;;;16.03;;
70545;SDS011;58098;51.680;5.134;2023-10-19T01:04:53;29.85;;;15.75;;
70545;SDS011;58098;51.680;5.134;2023-10-19T01:07:45;25.95;;;15.55;;
70545;SDS011;58098;51.680;5.134;2023-10-19T01:10:11;27.10;;;16.55;;
70545;SDS011;58098;51.680;5.134;2023-10-19T01:12:37;26.90;;;16.70;;
70545;SDS011;58098;51.680;5.134;2023-10-19T01:15:09;29.45;;;16.00;;
70545;SDS011;58098;51.680;5.134;2023-10-19T01:17:42;29.67;;;15.73;;
70545;SDS011;58098;51.680;5.134;2023-10-19T01:20:25;27.10;;;16.05;;
70545;SDS011;58098;51.680;5.134;2023-10-19T01:25:49;24.25;;;13.80;;
70545;SDS011;58098;51.680;5.134;2023-10-19T01:28:31;24.20;;;14.00;;
70545;SDS011;58098;51.680;5.134;2023-10-19T01:31:17;24.10;;;14.13;;
70545;SDS011;58098;51.680;5.134;2023-10-19T01:33:53;20.33;;;13.80;;
70545;SDS011;58098;51.680;5.134;2023-10-19T01:36:26;21.03;;;12.60;;
70545;SDS011;58098;51.680;5.134;2023-10-19T01:38:52;22.70;;;13.52;;
70545;SDS011;58098;51.680;5.134;2023-10-19T01:41:25;26.50;;;13.35;;
70545;SDS011;58098;51.680;5.134;2023-10-19T01:43:52;28.77;;;14.35;;
70545;SDS011;58098;51.680;5.134;2023-10-19T01:46:18;21.98;;;12.55;;
70545;SDS011;58098;51.680;5.134;2023-10-19T01:49:01;20.77;;;12.47;;
70545;SDS011;58098;51.680;5.134;2023-10-19T01:51:28;23.77;;;12.77;;
70545;SDS011;58098;51.680;5.134;2023-10-19T01:53:55;25.95;;;11.65;;
70545;SDS011;58098;51.680;5.134;2023-10-19T01:56:21;24.50;;;12.48;;
70545;SDS011;58098;51.680;5.134;2023-10-19T01:58:47;24.30;;;12.15;;
70545;SDS011;58098;51.680;5.134;2023-10-19T02:01:15;25.50;;;11.50;;
70545;SDS011;58098;51.680;5.134;2023-10-19T02:03:44;22.30;;;9.63;;
70545;SDS011;58098;51.680;5.134;2023-10-19T02:06:10;18.03;;;9.47;;
70545;SDS011;58098;51.680;5.134;2023-10-19T02:08:46;17.67;;;9.27;;
70545;SDS011;58098;51.680;5.134;2023-10-19T02:11:19;16.30;;;9.60;;
70545;SDS011;58098;51.680;5.134;2023-10-19T02:13:46;15.70;;;8.45;;
70545;SDS011;58098;51.680;5.134;2023-10-19T02:16:12;15.77;;;8.80;;
70545;SDS011;58098;51.680;5.134;2023-10-19T02:18:40;15.63;;;8.47;;
70545;SDS011;58098;51.680;5.134;2023-10-19T02:21:07;13.82;;;8.60;;
70545;SDS011;58098;51.680;5.134;2023-10-19T02:23:32;15.13;;;7.33;;
70545;SDS011;58098;51.680;5.134;2023-10-19T02:26:01;13.07;;;6.83;;
70545;SDS011;58098;51.680;5.134;2023-10-19T02:28:28;13.75;;;6.07;;
70545;SDS011;58098;51.680;5.134;2023-10-19T02:30:57;13.30;;;5.78;;
70545;SDS011;58098;51.680;5.134;2023-10-19T02:33:28;14.05;;;4.43;;
70545;SDS011;58098;51.680;5.134;2023-10-19T02:35:55;10.18;;;4.30;;
70545;SDS011;58098;51.680;5.134;2023-10-19T02:38:22;9.13;;;3.83;;
70545;SDS011;58098;51.680;5.134;2023-10-19T02:40:47;11.47;;;3.70;;
70545;SDS011;58098;51.680;5.134;2023-10-19T02:43:12;11.00;;;3.23;;
70545;SDS011;58098;51.680;5.134;2023-10-19T02:45:38;8.63;;;3.30;;
70545;SDS011;58098;51.680;5.134;2023-10-19T02:48:03;8.27;;;3.17;;
70545;SDS011;58098;51.680;5.134;2023-10-19T02:50:29;9.40;;;3.00;;
70545;SDS011;58098;51.680;5.134;2023-10-19T02:52:54;8.20;;;2.87;;
70545;SDS011;58098;51.680;5.134;2023-10-19T02:55:20;5.80;;;2.47;;
70545;SDS011;58098;51.680;5.134;2023-10-19T02:57:49;10.77;;;2.70;;
70545;SDS011;58098;51.680;5.134;2023-10-19T03:00:15;8.60;;;2.50;;
70545;SDS011;58098;51.680;5.134;2023-10-19T03:02:44;6.82;;;2.30;;
70545;SDS011;58098;51.680;5.134;2023-10-19T03:05:10;6.30;;;2.30;;
70545;SDS011;58098;51.680;5.134;2023-10-19T03:07:42;5.88;;;2.10;;
70545;SDS011;58098;51.680;5.134;2023-10-19T03:10:09;7.60;;;2.35;;
70545;SDS011;58098;51.680;5.134;2023-10-19T03:12:55;11.30;;;2.40;;
70545;SDS011;58098;51.680;5.134;2023-10-19T03:15:22;5.60;;;2.40;;
70545;SDS011;58098;51.680;5.134;2023-10-19T03:17:48;8.85;;;2.00;;
70545;SDS011;58098;51.680;5.134;2023-10-19T03:20:13;5.07;;;2.40;;
70545;SDS011;58098;51.680;5.134;2023-10-19T03:22:41;6.07;;;2.17;;
70545;SDS011;58098;51.680;5.134;2023-10-19T03:25:07;7.63;;;2.47;;
70545;SDS011;58098;51.680;5.134;2023-10-19T03:27:51;4.80;;;2.05;;
70545;SDS011;58098;51.680;5.134;2023-10-19T03:30:18;9.30;;;2.10;;
70545;SDS011;58098;51.680;5.134;2023-10-19T03:32:43;11.18;;;2.33;;
70545;SDS011;58098;51.680;5.134;2023-10-19T03:35:09;7.60;;;2.30;;
70545;SDS011;58098;51.680;5.134;2023-10-19T03:37:40;8.73;;;2.47;;
70545;SDS011;58098;51.680;5.134;2023-10-19T03:40:06;7.25;;;2.42;;
70545;SDS011;58098;51.680;5.134;2023-10-19T03:42:34;5.80;;;1.93;;
70545;SDS011;58098;51.680;5.134;2023-10-19T03:45:06;8.70;;;1.80;;
70545;SDS011;58098;51.680;5.134;2023-10-19T03:47:38;9.05;;;2.35;;
70545;SDS011;58098;51.680;5.134;2023-10-19T03:50:04;8.25;;;2.55;;
70545;SDS011;58098;51.680;5.134;2023-10-19T03:52:38;8.15;;;2.55;;
70545;SDS011;58098;51.680;5.134;2023-10-19T03:55:04;6.63;;;2.10;;
70545;SDS011;58098;51.680;5.134;2023-10-19T03:57:36;12.88;;;2.53;;
70545;SDS011;58098;51.680;5.134;2023-10-19T04:00:06;7.72;;;2.45;;
70545;SDS011;58098;51.680;5.134;2023-10-19T04:02:36;6.40;;;2.30;;
70545;SDS011;58098;51.680;5.134;2023-10-19T04:05:03;8.50;;;2.15;;
70545;SDS011;58098;51.680;5.134;2023-10-19T04:07:29;10.57;;;2.47;;
70545;SDS011;58098;51.680;5.134;2023-10-19T04:09:56;8.65;;;2.42;;
70545;SDS011;58098;51.680;5.134;2023-10-19T04:12:28;6.22;;;2.47;;
70545;SDS011;58098;51.680;5.134;2023-10-19T04:14:56;6.97;;;2.42;;
70545;SDS011;58098;51.680;5.134;2023-10-19T04:17:23;8.13;;;2.22;;
70545;SDS011;58098;51.680;5.134;2023-10-19T04:19:49;5.73;;;2.50;;
70545;SDS011;58098;51.680;5.134;2023-10-19T04:22:16;8.02;;;2.50;;
70545;SDS011;58098;51.680;5.134;2023-10-19T04:24:48;7.13;;;2.28;;
70545;SDS011;58098;51.680;5.134;2023-10-19T04:27:15;8.63;;;3.00;;
70545;SDS011;58098;51.680;5.134;2023-10-19T04:29:40;13.83;;;2.70;;
70545;SDS011;58098;51.680;5.134;2023-10-19T04:32:08;14.32;;;2.70;;
70545;SDS011;58098;51.680;5.134;2023-10-19T04:34:34;7.80;;;2.30;;
70545;SDS011;58098;51.680;5.134;2023-10-19T04:37:01;10.65;;;2.47;;
70545;SDS011;58098;51.680;5.134;2023-10-19T04:39:28;11.65;;;2.40;;
70545;SDS011;58098;51.680;5.134;2023-10-19T04:41:55;8.77;;;2.25;;
70545;SDS011;58098;51.680;5.134;2023-10-19T04:44:21;8.13;;;2.70;;
70545;SDS011;58098;51.680;5.134;2023-10-19T04:46:47;9.38;;;2.70;;
70545;SDS011;58098;51.680;5.134;2023-10-19T04:49:13;10.70;;;2.45;;
70545;SDS011;58098;51.680;5.134;2023-10-19T04:51:39;9.17;;;3.00;;
70545;SDS011;58098;51.680;5.134;2023-10-19T04:54:05;9.27;;;2.60;;
70545;SDS011;58098;51.680;5.134;2023-10-19T04:56:33;8.95;;;2.20;;
70545;SDS011;58098;51.680;5.134;2023-10-19T04:59:00;8.55;;;2.75;;
70545;SDS011;58098;51.680;5.134;2023-10-19T05:01:25;7.77;;;2.60;;
70545;SDS011;58098;51.680;5.134;2023-10-19T05:03:50;10.97;;;2.20;;
70545;SDS011;58098;51.680;5.134;2023-10-19T05:06:16;6.07;;;2.53;;
70545;SDS011;58098;51.680;5.134;2023-10-19T05:08:41;7.00;;;2.58;;
70545;SDS011;58098;51.680;5.134;2023-10-19T05:11:06;10.07;;;2.47;;
70545;SDS011;58098;51.680;5.134;2023-10-19T05:13:32;7.70;;;2.87;;
70545;SDS011;58098;51.680;5.134;2023-10-19T05:15:58;9.53;;;3.43;;
70545;SDS011;58098;51.680;5.134;2023-10-19T05:18:26;9.68;;;2.75;;
70545;SDS011;58098;51.680;5.134;2023-10-19T05:20:52;11.20;;;2.93;;
70545;SDS011;58098;51.680;5.134;2023-10-19T05:23:21;10.93;;;3.70;;
70545;SDS011;58098;51.680;5.134;2023-10-19T05:25:48;10.65;;;3.40;;
70545;SDS011;58098;51.680;5.134;2023-10-19T05:28:14;8.47;;;3.10;;
70545;SDS011;58098;51.680;5.134;2023-10-19T05:30:40;8.25;;;3.10;;
70545;SDS011;58098;51.680;5.134;2023-10-19T05:33:05;13.27;;;3.40;;
70545;SDS011;58098;51.680;5.134;2023-10-19T05:35:31;11.77;;;3.37;;
70545;SDS011;58098;51.680;5.134;2023-10-19T05:38:00;12.32;;;3.30;;
70545;SDS011;58098;51.680;5.134;2023-10-19T05:40:26;10.55;;;3.70;;
70545;SDS011;58098;51.680;5.134;2023-10-19T05:42:57;7.68;;;3.00;;
70545;SDS011;58098;51.680;5.134;2023-10-19T05:45:23;7.38;;;3.22;;
70545;SDS011;58098;51.680;5.134;2023-10-19T05:47:49;6.97;;;2.80;;
70545;SDS011;58098;51.680;5.134;2023-10-19T05:50:15;9.73;;;3.38;;
70545;SDS011;58098;51.680;5.134;2023-10-19T05:52:41;7.87;;;2.77;;
70545;SDS011;58098;51.680;5.134;2023-10-19T05:55:07;8.23;;;3.03;;
70545;SDS011;58098;51.680;5.134;2023-10-19T05:57:35;13.70;;;3.10;;
70545;SDS011;58098;51.680;5.134;2023-10-19T06:00:01;12.70;;;3.27;;
70545;SDS011;58098;51.680;5.134;2023-10-19T06:02:26;15.32;;;2.90;;
70545;SDS011;58098;51.680;5.134;2023-10-19T06:04:52;12.10;;;3.00;;
70545;SDS011;58098;51.680;5.134;2023-10-19T06:07:17;15.17;;;3.27;;
70545;SDS011;58098;51.680;5.134;2023-10-19T06:09:42;13.73;;;3.53;;
70545;SDS011;58098;51.680;5.134;2023-10-19T06:12:08;13.53;;;3.10;;
70545;SDS011;58098;51.680;5.134;2023-10-19T06:14:34;16.98;;;3.17;;
70545;SDS011;58098;51.680;5.134;2023-10-19T06:16:59;11.17;;;3.00;;
70545;SDS011;58098;51.680;5.134;2023-10-19T06:19:26;15.93;;;3.30;;
70545;SDS011;58098;51.680;5.134;2023-10-19T06:21:51;18.42;;;3.13;;
70545;SDS011;58098;51.680;5.134;2023-10-19T06:24:17;10.70;;;3.00;;
70545;SDS011;58098;51.680;5.134;2023-10-19T06:26:43;13.43;;;3.50;;
70545;SDS011;58098;51.680;5.134;2023-10-19T06:29:09;17.15;;;3.15;;
70545;SDS011;58098;51.680;5.134;2023-10-19T06:31:35;9.90;;;3.30;;
70545;SDS011;58098;51.680;5.134;2023-10-19T06:34:01;15.57;;;3.75;;
70545;SDS011;58098;51.680;5.134;2023-10-19T06:36:27;14.10;;;3.70;;
70545;SDS011;58098;51.680;5.134;2023-10-19T06:38:54;11.65;;;3.70;;
70545;SDS011;58098;51.680;5.134;2023-10-19T06:41:19;15.87;;;3.90;;
70545;SDS011;58098;51.680;5.134;2023-10-19T06:43:45;10.95;;;3.33;;
70545;SDS011;58098;51.680;5.134;2023-10-19T06:46:11;11.10;;;3.47;;
70545;SDS011;58098;51.680;5.134;2023-10-19T06:48:37;17.85;;;3.72;;
70545;SDS011;58098;51.680;5.134;2023-10-19T06:51:03;15.43;;;3.65;;
70545;SDS011;58098;51.680;5.134;2023-10-19T06:53:28;12.23;;;3.67;;
70545;SDS011;58098;51.680;5.134;2023-10-19T06:55:54;11.17;;;3.13;;
70545;SDS011;58098;51.680;5.134;2023-10-19T06:58:19;14.37;;;3.33;;
70545;SDS011;58098;51.680;5.134;2023-10-19T07:00:45;13.25;;;3.65;;
70545;SDS011;58098;51.680;5.134;2023-10-19T07:03:20;11.25;;;3.00;;
70545;SDS011;58098;51.680;5.134;2023-10-19T07:05:46;14.53;;;3.50;;
70545;SDS011;58098;51.680;5.134;2023-10-19T07:08:11;16.87;;;4.10;;
70545;SDS011;58098;51.680;5.134;2023-10-19T07:10:36;12.57;;;3.73;;
70545;SDS011;58098;51.680;5.134;2023-10-19T07:13:02;14.93;;;3.60;;
70545;SDS011;58098;51.680;5.134;2023-10-19T07:15:28;16.50;;;3.60;;
70545;SDS011;58098;51.680;5.134;2023-10-19T07:17:54;12.90;;;3.47;;
70545;SDS011;58098;51.680;5.134;2023-10-19T07:20:21;15.50;;;3.50;;
70545;SDS011;58098;51.680;5.134;2023-10-19T07:22:50;10.07;;;3.10;;
70545;SDS011;58098;51.680;5.134;2023-10-19T07:25:18;11.90;;;3.28;;
70545;SDS011;58098;51.680;5.134;2023-10-19T07:27:46;14.02;;;3.22;;
70545;SDS011;58098;51.680;5.134;2023-10-19T07:30:13;18.05;;;3.67;;
70545;SDS011;58098;51.680;5.134;2023-10-19T07:32:40;13.48;;;3.15;;
70545;SDS011;58098;51.680;5.134;2023-10-19T07:35:06;13.53;;;3.43;;
70545;SDS011;58098;51.680;5.134;2023-10-19T07:37:31;15.52;;;3.92;;
70545;SDS011;58098;51.680;5.134;2023-10-19T07:39:57;17.73;;;4.03;;
70545;SDS011;58098;51.680;5.134;2023-10-19T07:42:22;11.03;;;3.23;;
70545;SDS011;58098;51.680;5.134;2023-10-19T07:44:48;15.45;;;4.13;;
70545;SDS011;58098;51.680;5.134;2023-10-19T07:47:14;20.83;;;4.07;;
70545;SDS011;58098;51.680;5.134;2023-10-19T07:49:39;18.87;;;3.40;;
70545;SDS011;58098;51.680;5.134;2023-10-19T07:52:05;17.33;;;3.90;;
70545;SDS011;58098;51.680;5.134;2023-10-19T07:54:35;15.05;;;3.90;;
70545;SDS011;58098;51.680;5.134;2023-10-19T07:57:04;13.57;;;3.25;;
70545;SDS011;58098;51.680;5.134;2023-10-19T07:59:32;12.60;;;3.28;;
70545;SDS011;58098;51.680;5.134;2023-10-19T08:01:58;13.90;;;3.20;;
70545;SDS011;58098;51.680;5.134;2023-10-19T08:04:27;13.88;;;3.42;;
70545;SDS011;58098;51.680;5.134;2023-10-19T08:06:53;15.77;;;3.35;;
70545;SDS011;58098;51.680;5.134;2023-10-19T08:09:18;18.50;;;3.67;;
70545;SDS011;58098;51.680;5.134;2023-10-19T08:11:48;13.98;;;3.28;;
70545;SDS011;58098;51.680;5.134;2023-10-19T08:14:13;11.93;;;3.10;;
70545;SDS011;58098;51.680;5.134;2023-10-19T08:16:39;10.73;;;3.58;;
70545;SDS011;58098;51.680;5.134;2023-10-19T08:19:06;15.53;;;4.07;;
70545;SDS011;58098;51.680;5.134;2023-10-19T08:21:32;20.48;;;3.65;;
70545;SDS011;58098;51.680;5.134;2023-10-19T08:23:59;10.57;;;3.72;;
70545;SDS011;58098;51.680;5.134;2023-10-19T08:26:28;9.83;;;2.97;;
70545;SDS011;58098;51.680;5.134;2023-10-19T08:28:54;15.82;;;3.97;;
70545;SDS011;58098;51.680;5.134;2023-10-19T08:31:20;14.10;;;4.03;;
70545;SDS011;58098;51.680;5.134;2023-10-19T08:33:45;9.95;;;3.92;;
70545;SDS011;58098;51.680;5.134;2023-10-19T08:36:17;17.03;;;4.30;;
70545;SDS011;58098;51.680;5.134;2023-10-19T08:38:44;11.98;;;4.18;;
70545;SDS011;58098;51.680;5.134;2023-10-19T08:41:10;13.80;;;3.95;;
70545;SDS011;58098;51.680;5.134;2023-10-19T08:43:36;13.20;;;4.13;;
70545;SDS011;58098;51.680;5.134;2023-10-19T08:46:04;20.00;;;4.82;;
70545;SDS011;58098;51.680;5.134;2023-10-19T08:48:33;13.07;;;4.07;;
70545;SDS011;58098;51.680;5.134;2023-10-19T08:50:59;12.18;;;4.00;;
70545;SDS011;58098;51.680;5.134;2023-10-19T08:53:27;12.57;;;4.97;;
70545;SDS011;58098;51.680;5.134;2023-10-19T08:55:54;14.27;;;4.68;;
70545;SDS011;58098;51.680;5.134;2023-10-19T08:58:20;13.63;;;5.05;;
70545;SDS011;58098;51.680;5.134;2023-10-19T09:00:48;16.33;;;4.87;;
70545;SDS011;58098;51.680;5.134;2023-10-19T09:03:18;18.10;;;5.53;;
70545;SDS011;58098;51.680;5.134;2023-10-19T09:05:44;17.90;;;5.40;;
70545;SDS011;58098;51.680;5.134;2023-10-19T09:08:17;23.13;;;5.55;;
70545;SDS011;58098;51.680;5.134;2023-10-19T09:10:44;16.13;;;5.32;;
70545;SDS011;58098;51.680;5.134;2023-10-19T09:13:11;22.93;;;5.30;;
70545;SDS011;58098;51.680;5.134;2023-10-19T09:15:38;18.85;;;5.07;;
70545;SDS011;58098;51.680;5.134;2023-10-19T09:18:20;13.15;;;5.35;;
70545;SDS011;58098;51.680;5.134;2023-10-19T09:20:48;16.75;;;4.90;;
70545;SDS011;58098;51.680;5.134;2023-10-19T09:23:26;16.42;;;5.28;;
70545;SDS011;58098;51.680;5.134;2023-10-19T09:25:55;16.67;;;4.93;;
70545;SDS011;58098;51.680;5.134;2023-10-19T09:28:22;15.25;;;4.78;;
70545;SDS011;58098;51.680;5.134;2023-10-19T09:30:49;14.25;;;4.45;;
70545;SDS011;58098;51.680;5.134;2023-10-19T09:33:15;10.85;;;3.70;;
70545;SDS011;58098;51.680;5.134;2023-10-19T09:35:44;14.27;;;4.70;;
70545;SDS011;58098;51.680;5.134;2023-10-19T09:38:13;12.82;;;3.75;;
70545;SDS011;58098;51.680;5.134;2023-10-19T09:40:38;13.50;;;4.10;;
70545;SDS011;58098;51.680;5.134;2023-10-19T09:43:05;13.57;;;3.85;;
70545;SDS011;58098;51.680;5.134;2023-10-19T09:45:37;12.05;;;3.72;;
70545;SDS011;58098;51.680;5.134;2023-10-19T09:48:11;21.05;;;3.53;;
70545;SDS011;58098;51.680;5.134;2023-10-19T09:50:42;12.60;;;3.30;;
70545;SDS011;58098;51.680;5.134;2023-10-19T09:53:09;13.47;;;3.13;;
70545;SDS011;58098;51.680;5.134;2023-10-19T09:55:36;10.93;;;2.83;;
70545;SDS011;58098;51.680;5.134;2023-10-19T09:58:06;11.63;;;3.15;;
70545;SDS011;58098;51.680;5.134;2023-10-19T10:00:42;10.35;;;3.05;;
70545;SDS011;58098;51.680;5.134;2023-10-19T10:03:26;10.70;;;3.23;;
70545;SDS011;58098;51.680;5.134;2023-10-19T10:06:11;12.30;;;2.88;;
70545;SDS011;58098;51.680;5.134;2023-10-19T10:08:38;14.15;;;2.88;;
70545;SDS011;58098;51.680;5.134;2023-10-19T10:11:13;13.45;;;3.33;;
70545;SDS011;58098;51.680;5.134;2023-10-19T10:13:42;12.90;;;3.13;;
70545;SDS011;58098;51.680;5.134;2023-10-19T10:16:08;11.83;;;2.70;;
70545;SDS011;58098;51.680;5.134;2023-10-19T10:18:34;8.55;;;2.70;;
70545;SDS011;58098;51.680;5.134;2023-10-19T10:23:43;15.70;;;3.08;;
70545;SDS011;58098;51.680;5.134;2023-10-19T10:26:13;17.05;;;2.78;;
70545;SDS011;58098;51.680;5.134;2023-10-19T10:28:40;13.87;;;2.80;;
70545;SDS011;58098;51.680;5.134;2023-10-19T10:31:10;7.85;;;2.75;;
70545;SDS011;58098;51.680;5.134;2023-10-19T10:33:39;14.07;;;3.58;;
70545;SDS011;58098;51.680;5.134;2023-10-19T10:36:05;10.25;;;2.72;;
70545;SDS011;58098;51.680;5.134;2023-10-19T10:38:34;11.25;;;2.88;;
70545;SDS011;58098;51.680;5.134;2023-10-19T10:41:02;19.73;;;3.03;;
70545;SDS011;58098;51.680;5.134;2023-10-19T10:43:28;13.63;;;3.10;;
70545;SDS011;58098;51.680;5.134;2023-10-19T10:46:07;14.02;;;3.03;;
70545;SDS011;58098;51.680;5.134;2023-10-19T10:48:32;14.30;;;3.05;;
70545;SDS011;58098;51.680;5.134;2023-10-19T10:50:58;11.93;;;2.87;;
70545;SDS011;58098;51.680;5.134;2023-10-19T10:53:23;13.03;;;2.87;;
70545;SDS011;58098;51.680;5.134;2023-10-19T10:55:52;15.85;;;3.25;;
70545;SDS011;58098;51.680;5.134;2023-10-19T10:58:18;12.23;;;2.65;;
70545;SDS011;58098;51.680;5.134;2023-10-19T11:00:45;13.82;;;2.75;;
70545;SDS011;58098;51.680;5.134;2023-10-19T11:03:16;13.40;;;2.63;;
70545;SDS011;58098;51.680;5.134;2023-10-19T11:05:42;12.38;;;2.50;;
70545;SDS011;58098;51.680;5.134;2023-10-19T11:10:41;11.07;;;2.65;;
70545;SDS011;58098;51.680;5.134;2023-10-19T11:13:11;14.90;;;3.17;;
70545;SDS011;58098;51.680;5.134;2023-10-19T11:15:38;18.58;;;3.00;;
70545;SDS011;58098;51.680;5.134;2023-10-19T11:18:12;15.93;;;3.00;;
70545;SDS011;58098;51.680;5.134;2023-10-19T11:20:57;9.73;;;2.95;;
70545;SDS011;58098;51.680;5.134;2023-10-19T11:26:03;13.10;;;2.80;;
70545;SDS011;58098;51.680;5.134;2023-10-19T11:28:30;10.07;;;2.88;;
70545;SDS011;58098;51.680;5.134;2023-10-19T11:33:43;10.10;;;2.70;;
70545;SDS011;58098;51.680;5.134;2023-10-19T11:36:10;14.05;;;3.00;;
70545;SDS011;58098;51.680;5.134;2023-10-19T11:38:40;13.83;;;2.80;;
70545;SDS011;58098;51.680;5.134;2023-10-19T11:41:10;10.70;;;2.80;;
70545;SDS011;58098;51.680;5.134;2023-10-19T11:43:38;11.68;;;3.08;;
70545;SDS011;58098;51.680;5.134;2023-10-19T11:46:04;15.43;;;3.10;;
70545;SDS011;58098;51.680;5.134;2023-10-19T11:48:30;14.40;;;3.03;;
70545;SDS011;58098;51.680;5.134;2023-10-19T11:50:57;13.65;;;3.25;;
70545;SDS011;58098;51.680;5.134;2023-10-19T11:53:22;12.70;;;2.63;;
70545;SDS011;58098;51.680;5.134;2023-10-19T11:55:48;13.20;;;2.83;;
70545;SDS011;58098;51.680;5.134;2023-10-19T11:58:14;16.35;;;3.08;;
70545;SDS011;58098;51.680;5.134;2023-10-19T12:00:40;14.57;;;2.60;;
70545;SDS011;58098;51.680;5.134;2023-10-19T12:03:08;13.15;;;2.85;;
70545;SDS011;58098;51.680;5.134;2023-10-19T12:05:35;10.82;;;2.42;;
70545;SDS011;58098;51.680;5.134;2023-10-19T12:08:02;7.65;;;2.60;;
70545;SDS011;58098;51.680;5.134;2023-10-19T12:10:27;12.20;;;3.37;;
70545;SDS011;58098;51.680;5.134;2023-10-19T12:13:02;10.88;;;2.85;;
70545;SDS011;58098;51.680;5.134;2023-10-19T12:15:29;14.85;;;2.72;;
70545;SDS011;58098;51.680;5.134;2023-10-19T12:17:55;12.20;;;2.85;;
70545;SDS011;58098;51.680;5.134;2023-10-19T12:20:20;9.93;;;2.33;;
70545;SDS011;58098;51.680;5.134;2023-10-19T12:22:49;9.30;;;2.55;;
70545;SDS011;58098;51.680;5.134;2023-10-19T12:25:19;13.23;;;3.25;;
70545;SDS011;58098;51.680;5.134;2023-10-19T12:27:53;14.33;;;3.27;;
70545;SDS011;58098;51.680;5.134;2023-10-19T12:30:19;12.45;;;2.70;;
70545;SDS011;58098;51.680;5.134;2023-10-19T12:32:46;10.15;;;2.83;;
70545;SDS011;58098;51.680;5.134;2023-10-19T12:35:14;8.02;;;2.90;;
70545;SDS011;58098;51.680;5.134;2023-10-19T12:37:40;15.65;;;3.00;;
70545;SDS011;58098;51.680;5.134;2023-10-19T12:40:14;12.03;;;3.00;;
70545;SDS011;58098;51.680;5.134;2023-10-19T12:42:54;14.43;;;2.92;;
70545;SDS011;58098;51.680;5.134;2023-10-19T12:45:24;11.27;;;2.83;;
70545;SDS011;58098;51.680;5.134;2023-10-19T12:47:50;10.48;;;3.00;;
70545;SDS011;58098;51.680;5.134;2023-10-19T12:50:18;12.23;;;3.10;;
70545;SDS011;58098;51.680;5.134;2023-10-19T12:52:47;15.80;;;2.97;;
70545;SDS011;58098;51.680;5.134;2023-10-19T12:55:14;12.68;;;2.95;;
70545;SDS011;58098;51.680;5.134;2023-10-19T12:57:39;10.37;;;2.97;;
70545;SDS011;58098;51.680;5.134;2023-10-19T13:00:06;12.03;;;2.80;;
70545;SDS011;58098;51.680;5.134;2023-10-19T13:02:49;12.23;;;2.97;;
70545;SDS011;58098;51.680;5.134;2023-10-19T13:05:14;12.52;;;3.13;;
70545;SDS011;58098;51.680;5.134;2023-10-19T13:07:43;17.17;;;3.28;;
70545;SDS011;58098;51.680;5.134;2023-10-19T13:10:09;9.57;;;3.10;;
70545;SDS011;58098;51.680;5.134;2023-10-19T13:12:34;11.63;;;3.10;;
70545;SDS011;58098;51.680;5.134;2023-10-19T13:14:59;12.13;;;3.23;;
70545;SDS011;58098;51.680;5.134;2023-10-19T13:17:24;13.20;;;2.90;;
70545;SDS011;58098;51.680;5.134;2023-10-19T13:19:50;11.67;;;3.33;;
70545;SDS011;58098;51.680;5.134;2023-10-19T13:22:20;11.32;;;3.00;;
70545;SDS011;58098;51.680;5.134;2023-10-19T13:24:46;13.10;;;3.30;;
70545;SDS011;58098;51.680;5.134;2023-10-19T13:27:12;9.80;;;3.20;;
70545;SDS011;58098;51.680;5.134;2023-10-19T13:29:37;13.17;;;3.13;;
70545;SDS011;58098;51.680;5.134;2023-10-19T13:32:05;10.43;;;2.70;;
70545;SDS011;58098;51.680;5.134;2023-10-19T13:34:30;11.90;;;2.70;;
70545;SDS011;58098;51.680;5.134;2023-10-19T13:36:56;9.67;;;3.10;;
70545;SDS011;58098;51.680;5.134;2023-10-19T13:39:22;10.30;;;3.30;;
70545;SDS011;58098;51.680;5.134;2023-10-19T13:41:50;13.55;;;3.40;;
70545;SDS011;58098;51.680;5.134;2023-10-19T13:44:17;14.13;;;3.60;;
70545;SDS011;58098;51.680;5.134;2023-10-19T13:46:45;9.80;;;3.03;;
70545;SDS011;58098;51.680;5.134;2023-10-19T13:49:11;12.98;;;3.60;;
70545;SDS011;58098;51.680;5.134;2023-10-19T13:51:36;12.50;;;3.50;;
70545;SDS011;58098;51.680;5.134;2023-10-19T13:54:01;16.77;;;3.40;;
70545;SDS011;58098;51.680;5.134;2023-10-19T13:56:27;9.53;;;3.13;;
70545;SDS011;58098;51.680;5.134;2023-10-19T13:58:52;18.30;;;3.53;;
70545;SDS011;58098;51.680;5.134;2023-10-19T14:01:17;17.80;;;3.80;;
70545;SDS011;58098;51.680;5.134;2023-10-19T14:03:43;11.73;;;3.40;;
70545;SDS011;58098;51.680;5.134;2023-10-19T14:06:12;12.63;;;3.55;;
70545;SDS011;58098;51.680;5.134;2023-10-19T14:08:38;17.95;;;3.65;;
70545;SDS011;58098;51.680;5.134;2023-10-19T14:11:04;15.17;;;3.50;;
70545;SDS011;58098;51.680;5.134;2023-10-19T14:13:29;13.67;;;3.87;;
70545;SDS011;58098;51.680;5.134;2023-10-19T14:15:54;16.83;;;3.43;;
70545;SDS011;58098;51.680;5.134;2023-10-19T14:18:20;15.40;;;4.07;;
70545;SDS011;58098;51.680;5.134;2023-10-19T14:20:46;12.18;;;3.17;;
70545;SDS011;58098;51.680;5.134;2023-10-19T14:23:12;17.33;;;3.67;;
70545;SDS011;58098;51.680;5.134;2023-10-19T14:25:37;11.43;;;3.53;;
70545;SDS011;58098;51.680;5.134;2023-10-19T14:28:04;13.17;;;3.50;;
70545;SDS011;58098;51.680;5.134;2023-10-19T14:30:32;19.40;;;3.88;;
70545;SDS011;58098;51.680;5.134;2023-10-19T14:32:57;13.45;;;4.25;;
70545;SDS011;58098;51.680;5.134;2023-10-19T14:35:23;15.50;;;3.90;;
70545;SDS011;58098;51.680;5.134;2023-10-19T14:37:51;14.13;;;3.70;;
70545;SDS011;58098;51.680;5.134;2023-10-19T14:40:24;19.50;;;4.40;;
70545;SDS011;58098;51.680;5.134;2023-10-19T14:42:54;16.08;;;4.05;;
70545;SDS011;58098;51.680;5.134;2023-10-19T14:45:21;15.43;;;3.50;;
70545;SDS011;58098;51.680;5.134;2023-10-19T14:47:57;8.93;;;3.57;;
70545;SDS011;58098;51.680;5.134;2023-10-19T14:50:24;20.30;;;3.72;;
70545;SDS011;58098;51.680;5.134;2023-10-19T14:52:50;13.68;;;3.70;;
70545;SDS011;58098;51.680;5.134;2023-10-19T14:55:17;7.97;;;3.47;;